Blue Bay — V2CE6 — position and weather

sailwx.info

Track history (hours):
 
Tides and Currents Weather Stations Pressure Air Temp Water Temp Dewpoint Dewpoint Depression Visibility Wind Speed Wind Dir Waves Ship Positions

Blue Bay

Last reported at 2016-Sep-22 04:22 UTC. Time now 2016-Sep-25 03:45 UTC.
Position N 49°26' E 000°48'.

Length 89 m; draft 3.3 m.

Type: Cargo ship. MMSI: 304519000.

Date/timePositionNaut miles runAvg speedWind from/ knotsBaromVisibWave heightAir tempDewpointWater temp
2016-Sep-22 04:22N 49°26' E 000°48'6 6.7
2016-Sep-22 03:26N 49°29' E 000°40'2910.1
2016-Sep-22 00:33N 49°29' W 000°04'1212.2
2016-Sep-21 23:33N 49°33' W 000°22'1313.2
2016-Sep-21 22:33N 49°37' W 000°42'  
2016-Sep-19 13:28N 48°35' W 002°39'13 6.1
2016-Sep-19 11:16N 48°48' W 002°43'35 9.2
2016-Sep-19 07:32N 49°19' W 002°20'7811.2
2016-Sep-19 00:31N 50°08' W 000°44'41 8.3
2016-Sep-18 19:33N 50°31' E 000°09'4511.2
2016-Sep-18 15:33N 50°55' E 001°09'9 9.1
2016-Sep-18 14:33N 51°00' E 001°21'32 8.1
2016-Sep-18 10:33N 51°26' E 001°53'8 8.0
2016-Sep-18 09:33N 51°32' E 002°01'99 9.0
2016-Sep-17 22:33N 52°47' E 003°45'1311.5
2016-Sep-17 21:28N 52°57' E 003°59'1011.1
2016-Sep-17 20:33N 53°03' E 004°12'68 9.7
2016-Sep-17 13:33N 54°05' E 004°59'1110.2
2016-Sep-17 12:29N 54°15' E 005°07'267 9.2
2016-Sep-16 07:33N 57°43' E 010°07'27 6.7
2016-Sep-16 03:33N 57°25' E 010°44'1111.3
2016-Sep-16 02:33N 57°14' E 010°43'2211.1
2016-Sep-16 00:33N 56°53' E 010°55'2311.5
2016-Sep-15 22:33N 56°30' E 011°04'1111.4
2016-Sep-15 21:33N 56°19' E 011°06'1111.3
2016-Sep-15 20:33N 56°07' E 011°06'2110.3
2016-Sep-15 18:33N 55°49' E 010°49'6110.1
2016-Sep-15 12:33N 54°48' E 010°53'1010.0
2016-Sep-15 11:33N 54°39' E 011°01'49 7.0
2016-Sep-15 04:31N 54°09' E 012°08'0 0.0
2016-Sep-15 03:25N 54°09' E 012°08'0 0.0
2016-Sep-15 01:31N 54°09' E 012°08'0 0.0
2016-Sep-14 22:19N 54°09' E 012°08'0 0.0
2016-Sep-14 21:31N 54°09' E 012°08'0 0.0
2016-Sep-14 17:25N 54°09' E 012°08'0 0.0
2016-Sep-14 16:31N 54°09' E 012°08'0 0.0
2016-Sep-14 13:28N 54°09' E 012°08'0 0.0
2016-Sep-14 12:25N 54°09' E 012°08'0 0.0
2016-Sep-14 10:28N 54°09' E 012°08'0 0.0
2016-Sep-14 09:22N 54°09' E 012°08'0 0.0
2016-Sep-14 08:13N 54°09' E 012°08'0 0.0
2016-Sep-14 07:07N 54°09' E 012°08'0 0.0
2016-Sep-14 06:28N 54°09' E 012°08'0 0.0
2016-Sep-14 03:25N 54°09' E 012°08'0 0.0
2016-Sep-13 22:31N 54°09' E 012°08'0 0.0
2016-Sep-13 20:31N 54°09' E 012°08'0 0.0
2016-Sep-13 17:31N 54°09' E 012°08'0 0.0
2016-Sep-13 16:13N 54°09' E 012°08'0 0.0
2016-Sep-13 11:22N 54°09' E 012°08'0 0.0
2016-Sep-13 09:25N 54°09' E 012°08'0 0.0
2016-Sep-13 07:31N 54°09' E 012°08'0 0.0
2016-Sep-13 06:31N 54°09' E 012°08'0 0.0
2016-Sep-13 04:31N 54°09' E 012°08'0 0.0
2016-Sep-13 02:22N 54°09' E 012°08'0 0.0
2016-Sep-12 23:25N 54°09' E 012°08'0 0.0
2016-Sep-12 21:07N 54°09' E 012°08'0 0.0
2016-Sep-12 19:19N 54°09' E 012°08'0 0.0
2016-Sep-12 13:31N 54°09' E 012°08'0 0.0
2016-Sep-12 12:22N 54°09' E 012°08'0 0.0
2016-Sep-12 11:33N 54°09' E 012°08'0 0.0
2016-Sep-12 10:33N 54°09' E 012°08'0 0.0
2016-Sep-12 07:32N 54°09' E 012°08'0 0.0
2016-Sep-12 06:33N 54°09' E 012°08'  
Track history (hours):
 
Tides and Currents Weather Stations Pressure Air Temp Water Temp Dewpoint Dewpoint Depression Visibility Wind Speed Wind Dir Waves Ship Positions

Blue Bay

Last reported at 2016-Sep-22 04:22 UTC. Time now 2016-Sep-25 03:45 UTC.
Position N 49°26' E 000°48'.

Length 89 m; draft 3.3 m.

Type: Cargo ship. MMSI: 304519000.

Date/timePositionNaut miles runAvg speedWind from/ knotsBaromVisibWave heightAir tempDewpointWater temp
2016-Sep-22 04:22N 49°26' E 000°48'6 6.7
2016-Sep-22 03:26N 49°29' E 000°40'2910.1
2016-Sep-22 00:33N 49°29' W 000°04'1212.2
2016-Sep-21 23:33N 49°33' W 000°22'1313.2
2016-Sep-21 22:33N 49°37' W 000°42'  
2016-Sep-19 13:28N 48°35' W 002°39'13 6.1
2016-Sep-19 11:16N 48°48' W 002°43'35 9.2
2016-Sep-19 07:32N 49°19' W 002°20'7811.2
2016-Sep-19 00:31N 50°08' W 000°44'41 8.3
2016-Sep-18 19:33N 50°31' E 000°09'4511.2
2016-Sep-18 15:33N 50°55' E 001°09'9 9.1
2016-Sep-18 14:33N 51°00' E 001°21'32 8.1
2016-Sep-18 10:33N 51°26' E 001°53'8 8.0
2016-Sep-18 09:33N 51°32' E 002°01'99 9.0
2016-Sep-17 22:33N 52°47' E 003°45'1311.5
2016-Sep-17 21:28N 52°57' E 003°59'1011.1
2016-Sep-17 20:33N 53°03' E 004°12'68 9.7
2016-Sep-17 13:33N 54°05' E 004°59'1110.2
2016-Sep-17 12:29N 54°15' E 005°07'267 9.2
2016-Sep-16 07:33N 57°43' E 010°07'27 6.7
2016-Sep-16 03:33N 57°25' E 010°44'1111.3
2016-Sep-16 02:33N 57°14' E 010°43'2211.1
2016-Sep-16 00:33N 56°53' E 010°55'2311.5
2016-Sep-15 22:33N 56°30' E 011°04'1111.4
2016-Sep-15 21:33N 56°19' E 011°06'1111.3
2016-Sep-15 20:33N 56°07' E 011°06'2110.3
2016-Sep-15 18:33N 55°49' E 010°49'6110.1
2016-Sep-15 12:33N 54°48' E 010°53'1010.0
2016-Sep-15 11:33N 54°39' E 011°01'49 7.0
2016-Sep-15 04:31N 54°09' E 012°08'0 0.0
2016-Sep-15 03:25N 54°09' E 012°08'0 0.0
2016-Sep-15 01:31N 54°09' E 012°08'0 0.0
2016-Sep-14 22:19N 54°09' E 012°08'0 0.0
2016-Sep-14 21:31N 54°09' E 012°08'0 0.0
2016-Sep-14 17:25N 54°09' E 012°08'0 0.0
2016-Sep-14 16:31N 54°09' E 012°08'0 0.0
2016-Sep-14 13:28N 54°09' E 012°08'0 0.0
2016-Sep-14 12:25N 54°09' E 012°08'0 0.0
2016-Sep-14 10:28N 54°09' E 012°08'0 0.0
2016-Sep-14 09:22N 54°09' E 012°08'0 0.0
2016-Sep-14 08:13N 54°09' E 012°08'0 0.0
2016-Sep-14 07:07N 54°09' E 012°08'0 0.0
2016-Sep-14 06:28N 54°09' E 012°08'0 0.0
2016-Sep-14 03:25N 54°09' E 012°08'0 0.0
2016-Sep-13 22:31N 54°09' E 012°08'0 0.0
2016-Sep-13 20:31N 54°09' E 012°08'0 0.0
2016-Sep-13 17:31N 54°09' E 012°08'0 0.0
2016-Sep-13 16:13N 54°09' E 012°08'0 0.0
2016-Sep-13 11:22N 54°09' E 012°08'0 0.0
2016-Sep-13 09:25N 54°09' E 012°08'0 0.0
2016-Sep-13 07:31N 54°09' E 012°08'0 0.0
2016-Sep-13 06:31N 54°09' E 012°08'0 0.0
2016-Sep-13 04:31N 54°09' E 012°08'0 0.0
2016-Sep-13 02:22N 54°09' E 012°08'0 0.0
2016-Sep-12 23:25N 54°09' E 012°08'0 0.0
2016-Sep-12 21:07N 54°09' E 012°08'0 0.0
2016-Sep-12 19:19N 54°09' E 012°08'0 0.0
2016-Sep-12 13:31N 54°09' E 012°08'0 0.0
2016-Sep-12 12:22N 54°09' E 012°08'0 0.0
2016-Sep-12 11:33N 54°09' E 012°08'0 0.0
2016-Sep-12 10:33N 54°09' E 012°08'0 0.0
2016-Sep-12 07:32N 54°09' E 012°08'0 0.0
2016-Sep-12 06:33N 54°09' E 012°08'  

Dump ship's entire track history